sensor_id;sensor_type;location;lat;lon;timestamp;P1;durP1;ratioP1;P2;durP2;ratioP2
47882;SDS011;37739;50.350;7.578;2024-02-26T00:00:13;3.43;;;1.47;;
47882;SDS011;37739;50.350;7.578;2024-02-26T00:02:40;1.77;;;1.17;;
47882;SDS011;37739;50.350;7.578;2024-02-26T00:05:06;1.10;;;0.93;;
47882;SDS011;37739;50.350;7.578;2024-02-26T00:07:33;1.90;;;1.20;;
47882;SDS011;37739;50.350;7.578;2024-02-26T00:09:58;1.60;;;1.07;;
47882;SDS011;37739;50.350;7.578;2024-02-26T00:12:26;1.27;;;1.00;;
47882;SDS011;37739;50.350;7.578;2024-02-26T00:14:51;1.13;;;0.97;;
47882;SDS011;37739;50.350;7.578;2024-02-26T00:17:18;1.20;;;1.10;;
47882;SDS011;37739;50.350;7.578;2024-02-26T00:19:43;1.80;;;1.50;;
47882;SDS011;37739;50.350;7.578;2024-02-26T00:22:09;1.40;;;1.10;;
47882;SDS011;37739;50.350;7.578;2024-02-26T00:24:34;1.70;;;1.23;;
47882;SDS011;37739;50.350;7.578;2024-02-26T00:27:02;1.37;;;0.90;;
47882;SDS011;37739;50.350;7.578;2024-02-26T00:29:32;1.20;;;1.00;;
47882;SDS011;37739;50.350;7.578;2024-02-26T00:31:57;1.60;;;1.17;;
47882;SDS011;37739;50.350;7.578;2024-02-26T00:34:22;1.30;;;1.00;;
47882;SDS011;37739;50.350;7.578;2024-02-26T00:36:48;1.30;;;1.17;;
47882;SDS011;37739;50.350;7.578;2024-02-26T00:39:20;1.40;;;1.00;;
47882;SDS011;37739;50.350;7.578;2024-02-26T00:41:46;1.10;;;0.90;;
47882;SDS011;37739;50.350;7.578;2024-02-26T00:44:11;1.53;;;0.90;;
47882;SDS011;37739;50.350;7.578;2024-02-26T00:46:36;1.40;;;1.10;;
47882;SDS011;37739;50.350;7.578;2024-02-26T00:49:02;2.40;;;1.00;;
47882;SDS011;37739;50.350;7.578;2024-02-26T00:51:27;1.23;;;1.00;;
47882;SDS011;37739;50.350;7.578;2024-02-26T00:53:53;2.13;;;1.20;;
47882;SDS011;37739;50.350;7.578;2024-02-26T00:56:21;1.57;;;1.10;;
47882;SDS011;37739;50.350;7.578;2024-02-26T00:58:47;1.70;;;1.30;;
47882;SDS011;37739;50.350;7.578;2024-02-26T01:01:16;1.67;;;0.97;;
47882;SDS011;37739;50.350;7.578;2024-02-26T01:03:41;1.10;;;0.80;;
47882;SDS011;37739;50.350;7.578;2024-02-26T01:06:09;1.43;;;1.00;;
47882;SDS011;37739;50.350;7.578;2024-02-26T01:08:39;1.30;;;0.83;;
47882;SDS011;37739;50.350;7.578;2024-02-26T01:11:04;1.00;;;0.87;;
47882;SDS011;37739;50.350;7.578;2024-02-26T01:13:35;1.77;;;1.10;;
47882;SDS011;37739;50.350;7.578;2024-02-26T01:16:05;1.53;;;1.10;;
47882;SDS011;37739;50.350;7.578;2024-02-26T01:18:32;1.93;;;1.37;;
47882;SDS011;37739;50.350;7.578;2024-02-26T01:21:03;1.70;;;0.80;;
47882;SDS011;37739;50.350;7.578;2024-02-26T01:23:33;1.10;;;0.90;;
47882;SDS011;37739;50.350;7.578;2024-02-26T01:26:01;1.07;;;0.83;;
47882;SDS011;37739;50.350;7.578;2024-02-26T01:28:27;1.13;;;0.90;;
47882;SDS011;37739;50.350;7.578;2024-02-26T01:30:55;1.50;;;1.10;;
47882;SDS011;37739;50.350;7.578;2024-02-26T01:33:23;1.33;;;1.07;;
47882;SDS011;37739;50.350;7.578;2024-02-26T01:35:52;1.30;;;1.00;;
47882;SDS011;37739;50.350;7.578;2024-02-26T01:38:18;1.30;;;1.10;;
47882;SDS011;37739;50.350;7.578;2024-02-26T01:40:43;1.10;;;1.00;;
47882;SDS011;37739;50.350;7.578;2024-02-26T01:43:08;1.43;;;1.00;;
47882;SDS011;37739;50.350;7.578;2024-02-26T01:45:36;4.50;;;1.20;;
47882;SDS011;37739;50.350;7.578;2024-02-26T01:48:01;1.43;;;1.10;;
47882;SDS011;37739;50.350;7.578;2024-02-26T01:50:29;1.97;;;1.23;;
47882;SDS011;37739;50.350;7.578;2024-02-26T01:52:59;1.77;;;1.37;;
47882;SDS011;37739;50.350;7.578;2024-02-26T01:55:26;1.50;;;1.33;;
47882;SDS011;37739;50.350;7.578;2024-02-26T01:57:52;2.37;;;1.47;;
47882;SDS011;37739;50.350;7.578;2024-02-26T02:00:22;1.77;;;1.10;;
47882;SDS011;37739;50.350;7.578;2024-02-26T02:02:48;1.90;;;1.20;;
47882;SDS011;37739;50.350;7.578;2024-02-26T02:05:17;1.43;;;1.03;;
47882;SDS011;37739;50.350;7.578;2024-02-26T02:07:47;1.50;;;1.10;;
47882;SDS011;37739;50.350;7.578;2024-02-26T02:10:14;1.40;;;1.00;;
47882;SDS011;37739;50.350;7.578;2024-02-26T02:12:40;1.00;;;0.73;;
47882;SDS011;37739;50.350;7.578;2024-02-26T02:15:06;1.43;;;1.30;;
47882;SDS011;37739;50.350;7.578;2024-02-26T02:17:34;1.23;;;0.90;;
47882;SDS011;37739;50.350;7.578;2024-02-26T02:20:01;1.80;;;1.00;;
47882;SDS011;37739;50.350;7.578;2024-02-26T02:22:30;1.63;;;1.00;;
47882;SDS011;37739;50.350;7.578;2024-02-26T02:24:57;1.00;;;0.80;;
47882;SDS011;37739;50.350;7.578;2024-02-26T02:27:22;1.40;;;1.00;;
47882;SDS011;37739;50.350;7.578;2024-02-26T02:29:48;1.40;;;0.97;;
47882;SDS011;37739;50.350;7.578;2024-02-26T02:32:14;1.10;;;0.73;;
47882;SDS011;37739;50.350;7.578;2024-02-26T02:34:40;1.30;;;0.90;;
47882;SDS011;37739;50.350;7.578;2024-02-26T02:37:06;1.47;;;1.00;;
47882;SDS011;37739;50.350;7.578;2024-02-26T02:39:33;1.10;;;0.80;;
47882;SDS011;37739;50.350;7.578;2024-02-26T02:41:59;1.57;;;1.47;;
47882;SDS011;37739;50.350;7.578;2024-02-26T02:44:24;1.60;;;1.20;;
47882;SDS011;37739;50.350;7.578;2024-02-26T02:46:52;1.37;;;1.00;;
47882;SDS011;37739;50.350;7.578;2024-02-26T02:49:18;1.10;;;0.90;;
47882;SDS011;37739;50.350;7.578;2024-02-26T02:51:43;1.30;;;1.07;;
47882;SDS011;37739;50.350;7.578;2024-02-26T02:54:13;2.37;;;1.00;;
47882;SDS011;37739;50.350;7.578;2024-02-26T02:56:39;1.63;;;1.27;;
47882;SDS011;37739;50.350;7.578;2024-02-26T02:59:06;1.10;;;0.90;;
47882;SDS011;37739;50.350;7.578;2024-02-26T03:01:34;1.20;;;1.00;;
47882;SDS011;37739;50.350;7.578;2024-02-26T03:03:59;1.47;;;1.00;;
47882;SDS011;37739;50.350;7.578;2024-02-26T03:06:25;1.20;;;0.77;;
47882;SDS011;37739;50.350;7.578;2024-02-26T03:08:52;1.40;;;1.00;;
47882;SDS011;37739;50.350;7.578;2024-02-26T03:11:20;1.70;;;1.20;;
47882;SDS011;37739;50.350;7.578;2024-02-26T03:13:48;1.53;;;1.03;;
47882;SDS011;37739;50.350;7.578;2024-02-26T03:16:16;1.30;;;0.93;;
47882;SDS011;37739;50.350;7.578;2024-02-26T03:18:44;2.67;;;1.40;;
47882;SDS011;37739;50.350;7.578;2024-02-26T03:21:12;1.40;;;1.03;;
47882;SDS011;37739;50.350;7.578;2024-02-26T03:23:37;1.30;;;0.90;;
47882;SDS011;37739;50.350;7.578;2024-02-26T03:26:06;1.37;;;1.27;;
47882;SDS011;37739;50.350;7.578;2024-02-26T03:28:33;2.00;;;1.07;;
47882;SDS011;37739;50.350;7.578;2024-02-26T03:30:59;1.93;;;1.37;;
47882;SDS011;37739;50.350;7.578;2024-02-26T03:33:25;1.10;;;0.97;;
47882;SDS011;37739;50.350;7.578;2024-02-26T03:35:53;1.97;;;1.20;;
47882;SDS011;37739;50.350;7.578;2024-02-26T03:38:20;1.30;;;1.03;;
47882;SDS011;37739;50.350;7.578;2024-02-26T03:40:50;1.87;;;1.60;;
47882;SDS011;37739;50.350;7.578;2024-02-26T03:43:16;1.57;;;1.47;;
47882;SDS011;37739;50.350;7.578;2024-02-26T03:45:41;3.20;;;1.60;;
47882;SDS011;37739;50.350;7.578;2024-02-26T03:48:07;1.30;;;1.20;;
47882;SDS011;37739;50.350;7.578;2024-02-26T03:50:34;1.83;;;1.10;;
47882;SDS011;37739;50.350;7.578;2024-02-26T03:53:02;1.97;;;1.33;;
47882;SDS011;37739;50.350;7.578;2024-02-26T03:55:28;1.90;;;1.40;;
47882;SDS011;37739;50.350;7.578;2024-02-26T03:57:55;1.17;;;1.07;;
47882;SDS011;37739;50.350;7.578;2024-02-26T04:00:23;1.23;;;1.03;;
47882;SDS011;37739;50.350;7.578;2024-02-26T04:02:48;1.80;;;1.20;;
47882;SDS011;37739;50.350;7.578;2024-02-26T04:05:14;2.20;;;1.20;;
47882;SDS011;37739;50.350;7.578;2024-02-26T04:07:39;1.20;;;1.10;;
47882;SDS011;37739;50.350;7.578;2024-02-26T04:10:12;2.40;;;1.20;;
47882;SDS011;37739;50.350;7.578;2024-02-26T04:12:38;3.30;;;0.90;;
47882;SDS011;37739;50.350;7.578;2024-02-26T04:15:05;1.20;;;0.90;;
47882;SDS011;37739;50.350;7.578;2024-02-26T04:17:31;1.10;;;0.83;;
47882;SDS011;37739;50.350;7.578;2024-02-26T04:19:58;1.37;;;1.07;;
47882;SDS011;37739;50.350;7.578;2024-02-26T04:22:23;2.23;;;1.00;;
47882;SDS011;37739;50.350;7.578;2024-02-26T04:24:49;1.23;;;1.10;;
47882;SDS011;37739;50.350;7.578;2024-02-26T04:27:14;0.90;;;0.80;;
47882;SDS011;37739;50.350;7.578;2024-02-26T04:29:39;1.30;;;0.97;;
47882;SDS011;37739;50.350;7.578;2024-02-26T04:32:05;1.37;;;0.80;;
47882;SDS011;37739;50.350;7.578;2024-02-26T04:34:33;0.87;;;0.60;;
47882;SDS011;37739;50.350;7.578;2024-02-26T04:36:58;1.50;;;0.87;;
47882;SDS011;37739;50.350;7.578;2024-02-26T04:39:23;1.07;;;0.80;;
47882;SDS011;37739;50.350;7.578;2024-02-26T04:41:51;1.63;;;0.87;;
47882;SDS011;37739;50.350;7.578;2024-02-26T04:44:16;1.00;;;0.80;;
47882;SDS011;37739;50.350;7.578;2024-02-26T04:46:44;1.50;;;1.10;;
47882;SDS011;37739;50.350;7.578;2024-02-26T04:49:09;1.40;;;1.10;;
47882;SDS011;37739;50.350;7.578;2024-02-26T04:51:37;1.20;;;0.70;;
47882;SDS011;37739;50.350;7.578;2024-02-26T04:54:04;1.00;;;0.90;;
47882;SDS011;37739;50.350;7.578;2024-02-26T04:56:30;1.20;;;0.90;;
47882;SDS011;37739;50.350;7.578;2024-02-26T04:58:58;1.10;;;0.90;;
47882;SDS011;37739;50.350;7.578;2024-02-26T05:01:23;1.20;;;0.87;;
47882;SDS011;37739;50.350;7.578;2024-02-26T05:03:49;0.97;;;0.87;;
47882;SDS011;37739;50.350;7.578;2024-02-26T05:06:14;1.43;;;1.33;;
47882;SDS011;37739;50.350;7.578;2024-02-26T05:08:40;1.50;;;1.07;;
47882;SDS011;37739;50.350;7.578;2024-02-26T05:11:05;2.00;;;1.03;;
47882;SDS011;37739;50.350;7.578;2024-02-26T05:13:31;1.20;;;0.97;;
47882;SDS011;37739;50.350;7.578;2024-02-26T05:15:59;1.17;;;0.80;;
47882;SDS011;37739;50.350;7.578;2024-02-26T05:18:25;1.47;;;1.13;;
47882;SDS011;37739;50.350;7.578;2024-02-26T05:20:57;1.57;;;1.10;;
47882;SDS011;37739;50.350;7.578;2024-02-26T05:23:22;1.20;;;1.00;;
47882;SDS011;37739;50.350;7.578;2024-02-26T05:25:49;1.20;;;1.10;;
47882;SDS011;37739;50.350;7.578;2024-02-26T05:28:17;1.03;;;0.70;;
47882;SDS011;37739;50.350;7.578;2024-02-26T05:30:45;2.37;;;1.40;;
47882;SDS011;37739;50.350;7.578;2024-02-26T05:33:10;1.67;;;1.30;;
47882;SDS011;37739;50.350;7.578;2024-02-26T05:35:36;2.53;;;1.10;;
47882;SDS011;37739;50.350;7.578;2024-02-26T05:38:02;1.30;;;1.20;;
47882;SDS011;37739;50.350;7.578;2024-02-26T05:40:27;1.63;;;1.30;;
47882;SDS011;37739;50.350;7.578;2024-02-26T05:42:52;2.03;;;1.40;;
47882;SDS011;37739;50.350;7.578;2024-02-26T05:45:18;1.90;;;1.30;;
47882;SDS011;37739;50.350;7.578;2024-02-26T05:47:43;1.90;;;1.40;;
47882;SDS011;37739;50.350;7.578;2024-02-26T05:50:09;1.90;;;1.70;;
47882;SDS011;37739;50.350;7.578;2024-02-26T05:52:36;1.37;;;1.00;;
47882;SDS011;37739;50.350;7.578;2024-02-26T05:55:05;1.90;;;1.40;;
47882;SDS011;37739;50.350;7.578;2024-02-26T05:57:31;1.77;;;1.67;;
47882;SDS011;37739;50.350;7.578;2024-02-26T05:59:59;1.60;;;1.20;;
47882;SDS011;37739;50.350;7.578;2024-02-26T06:02:30;1.57;;;1.17;;
47882;SDS011;37739;50.350;7.578;2024-02-26T06:04:58;2.20;;;0.97;;
47882;SDS011;37739;50.350;7.578;2024-02-26T06:07:24;1.80;;;1.27;;
47882;SDS011;37739;50.350;7.578;2024-02-26T06:09:49;1.53;;;1.20;;
47882;SDS011;37739;50.350;7.578;2024-02-26T06:12:15;2.33;;;1.70;;
47882;SDS011;37739;50.350;7.578;2024-02-26T06:14:41;2.23;;;1.57;;
47882;SDS011;37739;50.350;7.578;2024-02-26T06:17:07;1.60;;;1.23;;
47882;SDS011;37739;50.350;7.578;2024-02-26T06:19:34;1.67;;;1.47;;
47882;SDS011;37739;50.350;7.578;2024-02-26T06:21:59;2.53;;;1.40;;
47882;SDS011;37739;50.350;7.578;2024-02-26T06:24:30;1.80;;;1.60;;
47882;SDS011;37739;50.350;7.578;2024-02-26T06:26:57;1.60;;;1.20;;
47882;SDS011;37739;50.350;7.578;2024-02-26T06:29:25;2.13;;;1.43;;
47882;SDS011;37739;50.350;7.578;2024-02-26T06:31:52;1.47;;;1.33;;
47882;SDS011;37739;50.350;7.578;2024-02-26T06:34:18;3.77;;;1.60;;
47882;SDS011;37739;50.350;7.578;2024-02-26T06:36:43;1.80;;;1.63;;
47882;SDS011;37739;50.350;7.578;2024-02-26T06:39:11;1.90;;;1.70;;
47882;SDS011;37739;50.350;7.578;2024-02-26T06:41:37;1.97;;;1.60;;
47882;SDS011;37739;50.350;7.578;2024-02-26T06:44:05;2.23;;;1.60;;
47882;SDS011;37739;50.350;7.578;2024-02-26T06:46:32;3.27;;;2.07;;
47882;SDS011;37739;50.350;7.578;2024-02-26T06:48:58;1.73;;;1.63;;
47882;SDS011;37739;50.350;7.578;2024-02-26T06:51:23;1.90;;;1.70;;
47882;SDS011;37739;50.350;7.578;2024-02-26T06:53:48;2.33;;;1.60;;
47882;SDS011;37739;50.350;7.578;2024-02-26T06:56:14;1.60;;;1.50;;
47882;SDS011;37739;50.350;7.578;2024-02-26T06:58:39;2.50;;;2.10;;
47882;SDS011;37739;50.350;7.578;2024-02-26T07:01:05;1.93;;;1.73;;
47882;SDS011;37739;50.350;7.578;2024-02-26T07:03:33;2.60;;;1.83;;
47882;SDS011;37739;50.350;7.578;2024-02-26T07:06:01;1.93;;;1.50;;
47882;SDS011;37739;50.350;7.578;2024-02-26T07:08:27;2.23;;;2.03;;
47882;SDS011;37739;50.350;7.578;2024-02-26T07:10:52;4.17;;;1.90;;
47882;SDS011;37739;50.350;7.578;2024-02-26T07:13:17;2.10;;;1.90;;
47882;SDS011;37739;50.350;7.578;2024-02-26T07:15:43;2.30;;;2.10;;
47882;SDS011;37739;50.350;7.578;2024-02-26T07:18:10;2.37;;;2.17;;
47882;SDS011;37739;50.350;7.578;2024-02-26T07:20:38;2.57;;;2.17;;
47882;SDS011;37739;50.350;7.578;2024-02-26T07:23:05;2.10;;;1.90;;
47882;SDS011;37739;50.350;7.578;2024-02-26T07:25:33;2.73;;;2.43;;
47882;SDS011;37739;50.350;7.578;2024-02-26T07:27:58;2.30;;;2.10;;
47882;SDS011;37739;50.350;7.578;2024-02-26T07:30:26;2.87;;;2.57;;
47882;SDS011;37739;50.350;7.578;2024-02-26T07:32:51;3.00;;;2.70;;
47882;SDS011;37739;50.350;7.578;2024-02-26T07:35:16;2.40;;;2.20;;
47882;SDS011;37739;50.350;7.578;2024-02-26T07:37:42;3.90;;;2.70;;
47882;SDS011;37739;50.350;7.578;2024-02-26T07:40:08;2.40;;;2.20;;
47882;SDS011;37739;50.350;7.578;2024-02-26T07:42:36;2.93;;;2.13;;
47882;SDS011;37739;50.350;7.578;2024-02-26T07:45:02;2.23;;;2.00;;
47882;SDS011;37739;50.350;7.578;2024-02-26T07:47:27;2.97;;;2.77;;
47882;SDS011;37739;50.350;7.578;2024-02-26T07:49:53;2.90;;;2.60;;
47882;SDS011;37739;50.350;7.578;2024-02-26T07:52:20;2.40;;;2.20;;
47882;SDS011;37739;50.350;7.578;2024-02-26T07:54:45;2.97;;;2.47;;
47882;SDS011;37739;50.350;7.578;2024-02-26T07:57:11;3.00;;;2.53;;
47882;SDS011;37739;50.350;7.578;2024-02-26T07:59:41;2.90;;;2.60;;
47882;SDS011;37739;50.350;7.578;2024-02-26T08:02:06;2.97;;;2.67;;
47882;SDS011;37739;50.350;7.578;2024-02-26T08:04:35;2.57;;;2.33;;
47882;SDS011;37739;50.350;7.578;2024-02-26T08:07:00;2.53;;;2.33;;
47882;SDS011;37739;50.350;7.578;2024-02-26T08:09:25;2.30;;;2.03;;
47882;SDS011;37739;50.350;7.578;2024-02-26T08:11:51;2.50;;;2.30;;
47882;SDS011;37739;50.350;7.578;2024-02-26T08:14:18;3.03;;;2.70;;
47882;SDS011;37739;50.350;7.578;2024-02-26T08:16:44;2.60;;;2.10;;
47882;SDS011;37739;50.350;7.578;2024-02-26T08:19:09;2.70;;;2.40;;
47882;SDS011;37739;50.350;7.578;2024-02-26T08:21:36;2.87;;;2.67;;
47882;SDS011;37739;50.350;7.578;2024-02-26T08:24:01;2.50;;;2.30;;
47882;SDS011;37739;50.350;7.578;2024-02-26T08:26:27;2.90;;;2.60;;
47882;SDS011;37739;50.350;7.578;2024-02-26T08:28:52;2.30;;;2.10;;
47882;SDS011;37739;50.350;7.578;2024-02-26T08:31:20;2.47;;;1.83;;
47882;SDS011;37739;50.350;7.578;2024-02-26T08:33:48;2.37;;;2.17;;
47882;SDS011;37739;50.350;7.578;2024-02-26T08:36:14;2.23;;;2.00;;
47882;SDS011;37739;50.350;7.578;2024-02-26T08:38:41;2.17;;;1.97;;
47882;SDS011;37739;50.350;7.578;2024-02-26T08:41:07;2.40;;;2.20;;
47882;SDS011;37739;50.350;7.578;2024-02-26T08:43:32;2.30;;;2.10;;
47882;SDS011;37739;50.350;7.578;2024-02-26T08:45:59;2.23;;;2.00;;
47882;SDS011;37739;50.350;7.578;2024-02-26T08:48:25;2.10;;;1.90;;
47882;SDS011;37739;50.350;7.578;2024-02-26T08:50:53;2.20;;;2.00;;
47882;SDS011;37739;50.350;7.578;2024-02-26T08:53:18;2.87;;;2.67;;
47882;SDS011;37739;50.350;7.578;2024-02-26T08:55:46;2.53;;;2.33;;
47882;SDS011;37739;50.350;7.578;2024-02-26T08:58:11;2.03;;;1.80;;
47882;SDS011;37739;50.350;7.578;2024-02-26T09:00:39;3.10;;;2.27;;
47882;SDS011;37739;50.350;7.578;2024-02-26T09:03:04;2.10;;;1.90;;
47882;SDS011;37739;50.350;7.578;2024-02-26T09:05:29;3.27;;;2.30;;
47882;SDS011;37739;50.350;7.578;2024-02-26T09:07:55;2.40;;;2.07;;
47882;SDS011;37739;50.350;7.578;2024-02-26T09:10:22;2.90;;;2.17;;
47882;SDS011;37739;50.350;7.578;2024-02-26T09:12:48;3.53;;;2.50;;
47882;SDS011;37739;50.350;7.578;2024-02-26T09:15:13;3.60;;;2.90;;
47882;SDS011;37739;50.350;7.578;2024-02-26T09:17:39;3.00;;;2.80;;
47882;SDS011;37739;50.350;7.578;2024-02-26T09:20:07;2.50;;;2.30;;
47882;SDS011;37739;50.350;7.578;2024-02-26T09:22:34;3.03;;;2.23;;
47882;SDS011;37739;50.350;7.578;2024-02-26T09:24:59;2.43;;;2.20;;
47882;SDS011;37739;50.350;7.578;2024-02-26T09:27:25;2.60;;;2.40;;
47882;SDS011;37739;50.350;7.578;2024-02-26T09:29:50;2.50;;;2.30;;
47882;SDS011;37739;50.350;7.578;2024-02-26T09:32:18;2.30;;;2.10;;
47882;SDS011;37739;50.350;7.578;2024-02-26T09:34:45;2.40;;;2.20;;
47882;SDS011;37739;50.350;7.578;2024-02-26T09:37:11;2.10;;;1.90;;
47882;SDS011;37739;50.350;7.578;2024-02-26T09:39:37;1.70;;;1.57;;
47882;SDS011;37739;50.350;7.578;2024-02-26T09:42:04;2.60;;;2.33;;
47882;SDS011;37739;50.350;7.578;2024-02-26T09:44:32;2.60;;;2.20;;
47882;SDS011;37739;50.350;7.578;2024-02-26T09:47:03;2.33;;;2.00;;
47882;SDS011;37739;50.350;7.578;2024-02-26T09:49:30;2.83;;;2.23;;
47882;SDS011;37739;50.350;7.578;2024-02-26T09:51:58;2.57;;;2.13;;
47882;SDS011;37739;50.350;7.578;2024-02-26T09:54:26;2.43;;;2.23;;
47882;SDS011;37739;50.350;7.578;2024-02-26T09:56:53;2.93;;;2.73;;
47882;SDS011;37739;50.350;7.578;2024-02-26T09:59:24;2.80;;;2.60;;
47882;SDS011;37739;50.350;7.578;2024-02-26T10:01:50;2.80;;;2.10;;
47882;SDS011;37739;50.350;7.578;2024-02-26T10:04:18;2.07;;;1.83;;
47882;SDS011;37739;50.350;7.578;2024-02-26T10:06:44;2.40;;;2.17;;
47882;SDS011;37739;50.350;7.578;2024-02-26T10:09:11;3.07;;;2.50;;
47882;SDS011;37739;50.350;7.578;2024-02-26T10:11:41;3.20;;;1.90;;
47882;SDS011;37739;50.350;7.578;2024-02-26T10:14:08;3.40;;;3.10;;
47882;SDS011;37739;50.350;7.578;2024-02-26T10:16:36;2.80;;;2.57;;
47882;SDS011;37739;50.350;7.578;2024-02-26T10:19:02;2.83;;;2.50;;
47882;SDS011;37739;50.350;7.578;2024-02-26T10:21:30;2.70;;;2.50;;
47882;SDS011;37739;50.350;7.578;2024-02-26T10:23:57;2.33;;;2.13;;
47882;SDS011;37739;50.350;7.578;2024-02-26T10:26:25;2.57;;;2.30;;
47882;SDS011;37739;50.350;7.578;2024-02-26T10:28:57;2.17;;;1.87;;
47882;SDS011;37739;50.350;7.578;2024-02-26T10:31:25;1.80;;;1.60;;
47882;SDS011;37739;50.350;7.578;2024-02-26T10:33:51;3.17;;;2.40;;
47882;SDS011;37739;50.350;7.578;2024-02-26T10:36:22;2.60;;;2.30;;
47882;SDS011;37739;50.350;7.578;2024-02-26T10:38:47;2.50;;;2.30;;
47882;SDS011;37739;50.350;7.578;2024-02-26T10:41:18;3.07;;;2.77;;
47882;SDS011;37739;50.350;7.578;2024-02-26T10:43:47;2.80;;;2.60;;
47882;SDS011;37739;50.350;7.578;2024-02-26T10:46:12;3.30;;;3.00;;
47882;SDS011;37739;50.350;7.578;2024-02-26T10:48:41;2.77;;;2.57;;
47882;SDS011;37739;50.350;7.578;2024-02-26T10:51:17;2.87;;;2.50;;
47882;SDS011;37739;50.350;7.578;2024-02-26T10:53:50;2.50;;;2.30;;
47882;SDS011;37739;50.350;7.578;2024-02-26T10:56:19;2.20;;;2.00;;
47882;SDS011;37739;50.350;7.578;2024-02-26T10:58:46;3.10;;;2.80;;
47882;SDS011;37739;50.350;7.578;2024-02-26T11:01:12;2.30;;;1.93;;
47882;SDS011;37739;50.350;7.578;2024-02-26T11:03:38;2.37;;;2.17;;
47882;SDS011;37739;50.350;7.578;2024-02-26T11:06:07;2.53;;;2.33;;
47882;SDS011;37739;50.350;7.578;2024-02-26T11:08:33;2.80;;;2.50;;
47882;SDS011;37739;50.350;7.578;2024-02-26T11:11:01;2.70;;;2.50;;
47882;SDS011;37739;50.350;7.578;2024-02-26T11:13:28;2.80;;;2.47;;
47882;SDS011;37739;50.350;7.578;2024-02-26T11:15:55;2.30;;;2.10;;
47882;SDS011;37739;50.350;7.578;2024-02-26T11:18:26;2.80;;;2.60;;
47882;SDS011;37739;50.350;7.578;2024-02-26T11:20:54;2.87;;;2.57;;
47882;SDS011;37739;50.350;7.578;2024-02-26T11:23:22;2.87;;;2.57;;
47882;SDS011;37739;50.350;7.578;2024-02-26T11:25:49;3.07;;;2.70;;
47882;SDS011;37739;50.350;7.578;2024-02-26T11:28:19;2.63;;;2.43;;
47882;SDS011;37739;50.350;7.578;2024-02-26T11:30:47;3.20;;;2.90;;
47882;SDS011;37739;50.350;7.578;2024-02-26T11:33:14;2.80;;;2.47;;
47882;SDS011;37739;50.350;7.578;2024-02-26T11:35:44;2.50;;;2.30;;
47882;SDS011;37739;50.350;7.578;2024-02-26T11:38:17;2.47;;;2.27;;
47882;SDS011;37739;50.350;7.578;2024-02-26T11:40:46;2.37;;;2.17;;
47882;SDS011;37739;50.350;7.578;2024-02-26T11:43:12;2.70;;;2.50;;
47882;SDS011;37739;50.350;7.578;2024-02-26T11:48:11;2.40;;;2.20;;
47882;SDS011;37739;50.350;7.578;2024-02-26T11:50:40;3.13;;;2.60;;
47882;SDS011;37739;50.350;7.578;2024-02-26T12:04:21;3.23;;;2.93;;
47882;SDS011;37739;50.350;7.578;2024-02-26T12:06:52;2.83;;;2.30;;
47882;SDS011;37739;50.350;7.578;2024-02-26T12:09:33;2.70;;;2.50;;
47882;SDS011;37739;50.350;7.578;2024-02-26T12:12:03;2.97;;;2.70;;
47882;SDS011;37739;50.350;7.578;2024-02-26T12:14:33;3.10;;;2.90;;
47882;SDS011;37739;50.350;7.578;2024-02-26T12:17:19;3.50;;;3.20;;
47882;SDS011;37739;50.350;7.578;2024-02-26T12:19:45;2.90;;;2.60;;
47882;SDS011;37739;50.350;7.578;2024-02-26T12:22:13;3.47;;;2.90;;
47882;SDS011;37739;50.350;7.578;2024-02-26T12:24:42;3.93;;;2.07;;
47882;SDS011;37739;50.350;7.578;2024-02-26T12:27:11;2.50;;;2.30;;
47882;SDS011;37739;50.350;7.578;2024-02-26T12:29:40;3.73;;;2.87;;
47882;SDS011;37739;50.350;7.578;2024-02-26T12:32:07;2.90;;;2.70;;
47882;SDS011;37739;50.350;7.578;2024-02-26T12:34:33;2.80;;;2.50;;
47882;SDS011;37739;50.350;7.578;2024-02-26T12:37:00;2.80;;;2.57;;
47882;SDS011;37739;50.350;7.578;2024-02-26T12:39:26;2.60;;;2.40;;
47882;SDS011;37739;50.350;7.578;2024-02-26T12:41:55;3.17;;;2.87;;
47882;SDS011;37739;50.350;7.578;2024-02-26T12:44:24;2.97;;;2.77;;
47882;SDS011;37739;50.350;7.578;2024-02-26T12:46:50;3.50;;;2.93;;
47882;SDS011;37739;50.350;7.578;2024-02-26T12:49:16;3.40;;;3.10;;
47882;SDS011;37739;50.350;7.578;2024-02-26T12:51:43;4.33;;;3.43;;
47882;SDS011;37739;50.350;7.578;2024-02-26T12:54:09;3.30;;;2.87;;
47882;SDS011;37739;50.350;7.578;2024-02-26T12:56:38;3.10;;;2.80;;
47882;SDS011;37739;50.350;7.578;2024-02-26T12:59:03;3.13;;;2.83;;
47882;SDS011;37739;50.350;7.578;2024-02-26T13:01:34;4.33;;;3.93;;
47882;SDS011;37739;50.350;7.578;2024-02-26T13:04:00;3.53;;;3.23;;
47882;SDS011;37739;50.350;7.578;2024-02-26T13:06:31;3.20;;;2.77;;
47882;SDS011;37739;50.350;7.578;2024-02-26T13:08:57;3.20;;;2.90;;
47882;SDS011;37739;50.350;7.578;2024-02-26T13:11:24;3.47;;;2.80;;
47882;SDS011;37739;50.350;7.578;2024-02-26T13:13:53;3.60;;;3.30;;
47882;SDS011;37739;50.350;7.578;2024-02-26T13:16:23;3.57;;;3.27;;
47882;SDS011;37739;50.350;7.578;2024-02-26T13:18:52;3.87;;;3.57;;
47882;SDS011;37739;50.350;7.578;2024-02-26T13:21:18;3.27;;;3.00;;
47882;SDS011;37739;50.350;7.578;2024-02-26T13:23:47;3.67;;;3.37;;
47882;SDS011;37739;50.350;7.578;2024-02-26T13:26:14;4.00;;;3.60;;
47882;SDS011;37739;50.350;7.578;2024-02-26T13:28:41;3.27;;;2.90;;
47882;SDS011;37739;50.350;7.578;2024-02-26T13:31:09;2.77;;;2.57;;
47882;SDS011;37739;50.350;7.578;2024-02-26T13:33:35;2.60;;;2.40;;
47882;SDS011;37739;50.350;7.578;2024-02-26T13:36:02;3.43;;;2.70;;
47882;SDS011;37739;50.350;7.578;2024-02-26T13:38:30;3.20;;;2.90;;
47882;SDS011;37739;50.350;7.578;2024-02-26T13:40:56;3.37;;;3.10;;
47882;SDS011;37739;50.350;7.578;2024-02-26T13:43:21;4.10;;;3.70;;
47882;SDS011;37739;50.350;7.578;2024-02-26T13:45:47;3.77;;;3.47;;
47882;SDS011;37739;50.350;7.578;2024-02-26T13:48:13;4.70;;;3.67;;
47882;SDS011;37739;50.350;7.578;2024-02-26T13:50:41;2.83;;;2.63;;
47882;SDS011;37739;50.350;7.578;2024-02-26T13:53:10;2.73;;;2.53;;
47882;SDS011;37739;50.350;7.578;2024-02-26T13:55:39;3.17;;;2.90;;
47882;SDS011;37739;50.350;7.578;2024-02-26T13:58:07;2.53;;;2.30;;
47882;SDS011;37739;50.350;7.578;2024-02-26T14:00:36;3.27;;;2.97;;
47882;SDS011;37739;50.350;7.578;2024-02-26T14:03:02;4.27;;;3.87;;
47882;SDS011;37739;50.350;7.578;2024-02-26T14:05:27;3.47;;;3.03;;
47882;SDS011;37739;50.350;7.578;2024-02-26T14:07:53;3.40;;;3.10;;
47882;SDS011;37739;50.350;7.578;2024-02-26T14:10:21;3.07;;;2.80;;
47882;SDS011;37739;50.350;7.578;2024-02-26T14:12:49;3.13;;;2.83;;
47882;SDS011;37739;50.350;7.578;2024-02-26T14:15:17;4.43;;;3.63;;
47882;SDS011;37739;50.350;7.578;2024-02-26T14:17:42;3.83;;;3.47;;
47882;SDS011;37739;50.350;7.578;2024-02-26T14:20:13;2.80;;;2.53;;
47882;SDS011;37739;50.350;7.578;2024-02-26T14:22:38;4.07;;;3.40;;
47882;SDS011;37739;50.350;7.578;2024-02-26T14:25:03;3.53;;;3.13;;
47882;SDS011;37739;50.350;7.578;2024-02-26T14:27:32;3.50;;;3.20;;
47882;SDS011;37739;50.350;7.578;2024-02-26T14:29:57;4.07;;;3.67;;
47882;SDS011;37739;50.350;7.578;2024-02-26T14:32:22;3.60;;;3.30;;
47882;SDS011;37739;50.350;7.578;2024-02-26T14:34:48;3.70;;;3.40;;
47882;SDS011;37739;50.350;7.578;2024-02-26T14:37:13;3.70;;;3.40;;
47882;SDS011;37739;50.350;7.578;2024-02-26T14:39:41;3.60;;;3.00;;
47882;SDS011;37739;50.350;7.578;2024-02-26T14:42:06;5.20;;;4.03;;
47882;SDS011;37739;50.350;7.578;2024-02-26T14:44:31;4.13;;;3.73;;
47882;SDS011;37739;50.350;7.578;2024-02-26T14:46:57;4.03;;;3.40;;
47882;SDS011;37739;50.350;7.578;2024-02-26T14:49:26;3.90;;;3.50;;
47882;SDS011;37739;50.350;7.578;2024-02-26T14:51:55;4.03;;;3.63;;
47882;SDS011;37739;50.350;7.578;2024-02-26T14:54:21;3.60;;;3.10;;
47882;SDS011;37739;50.350;7.578;2024-02-26T14:56:51;2.47;;;2.27;;
47882;SDS011;37739;50.350;7.578;2024-02-26T14:59:18;4.27;;;3.60;;